createdAt,value
2018-06-09T00:00:27.487Z,23.18
2018-06-09T00:02:57.620Z,23.13
2018-06-09T00:05:28.842Z,22.91
2018-06-09T00:07:59.614Z,22.73
2018-06-09T00:10:29.624Z,22.75
2018-06-09T00:12:59.787Z,22.79
2018-06-09T00:15:29.905Z,22.86
2018-06-09T00:18:00.807Z,22.91
2018-06-09T00:20:31.563Z,22.97
2018-06-09T00:23:01.849Z,23.01
2018-06-09T00:25:32.439Z,23.00
2018-06-09T00:28:02.550Z,23.05
2018-06-09T00:30:32.522Z,23.10
2018-06-09T00:33:03.553Z,23.08
2018-06-09T00:35:33.744Z,23.10
2018-06-09T00:38:03.648Z,23.13
2018-06-09T00:40:33.717Z,23.16
2018-06-09T00:43:03.697Z,23.18
2018-06-09T00:45:33.855Z,23.18
2018-06-09T00:48:03.986Z,23.18
2018-06-09T00:50:34.028Z,23.21
2018-06-09T00:53:03.888Z,23.18
2018-06-09T00:55:34.003Z,23.15
2018-06-09T00:58:04.124Z,23.15
2018-06-09T01:00:34.187Z,23.16
2018-06-09T01:03:04.359Z,23.13
2018-06-09T01:05:34.347Z,23.11
2018-06-09T01:08:04.407Z,23.10
2018-06-09T01:10:34.283Z,23.08
2018-06-09T01:13:04.674Z,23.09
2018-06-09T01:15:34.559Z,23.06
2018-06-09T01:18:04.533Z,23.04
2018-06-09T01:20:34.888Z,23.00
2018-06-09T01:23:04.925Z,22.95
2018-06-09T01:25:34.789Z,22.92
2018-06-09T01:28:05.119Z,22.94
2018-06-09T01:30:35.205Z,22.95
2018-06-09T01:33:04.908Z,22.87
2018-06-09T01:35:34.903Z,22.78
2018-06-09T01:38:04.869Z,22.73
2018-06-09T01:40:35.074Z,22.66
2018-06-09T01:43:05.031Z,22.65
2018-06-09T01:45:35.116Z,22.59
2018-06-09T01:48:05.097Z,22.57
2018-06-09T01:50:35.655Z,22.59
2018-06-09T01:53:05.827Z,22.62
2018-06-09T01:55:36.067Z,22.63
2018-06-09T01:58:06.282Z,22.65
2018-06-09T02:00:36.231Z,22.70
2018-06-09T02:03:06.392Z,22.68
2018-06-09T02:05:36.346Z,22.62
2018-06-09T02:08:06.267Z,22.52
2018-06-09T02:10:36.229Z,22.53
2018-06-09T02:13:06.136Z,22.47
2018-06-09T02:15:36.246Z,22.49
2018-06-09T02:18:06.247Z,22.51
2018-06-09T02:20:36.063Z,22.55
2018-06-09T02:23:05.862Z,22.59
2018-06-09T02:25:35.783Z,22.61
2018-06-09T02:28:05.988Z,22.64
2018-06-09T02:30:36.165Z,22.62
2018-06-09T02:33:06.056Z,22.60
2018-06-09T02:35:36.188Z,22.65
2018-06-09T02:38:06.073Z,22.69
2018-06-09T02:40:36.056Z,22.66
2018-06-09T02:43:05.907Z,22.57
2018-06-09T02:45:36.126Z,22.54
2018-06-09T02:48:06.264Z,22.56
2018-06-09T02:50:36.591Z,22.59
2018-06-09T02:53:07.733Z,22.63
2018-06-09T02:55:38.043Z,22.65
2018-06-09T02:58:08.117Z,22.66
2018-06-09T03:00:39.227Z,22.66
2018-06-09T03:03:09.394Z,22.64
2018-06-09T03:05:39.977Z,22.63
2018-06-09T03:08:10.421Z,22.53
2018-06-09T03:10:40.997Z,22.36
2018-06-09T03:13:11.537Z,22.32
2018-06-09T03:15:42.008Z,22.36
2018-06-09T03:18:12.553Z,22.34
2018-06-09T03:20:43.003Z,22.15
2018-06-09T03:23:13.528Z,21.85
2018-06-09T03:25:44.226Z,21.81
2018-06-09T03:28:14.242Z,21.84
2018-06-09T03:40:19.988Z,21.86
2018-06-09T03:42:50.253Z,21.94
2018-06-09T03:45:20.033Z,21.97
2018-06-09T03:47:49.736Z,21.97
2018-06-09T03:50:19.598Z,21.96
2018-06-09T03:52:49.708Z,21.97
2018-06-09T03:55:20.190Z,21.97
2018-06-09T03:57:50.909Z,21.90
2018-06-09T04:00:21.157Z,21.92
2018-06-09T04:02:51.698Z,21.92
2018-06-09T04:05:22.617Z,21.92
2018-06-09T04:07:52.808Z,21.95
2018-06-09T04:10:23.353Z,21.84
2018-06-09T04:12:53.837Z,21.84
2018-06-09T04:15:24.614Z,21.81
2018-06-09T04:17:54.842Z,21.82
2018-06-09T04:20:25.292Z,21.94
2018-06-09T04:22:55.874Z,21.97
2018-06-09T04:25:26.289Z,22.00
2018-06-09T04:27:56.889Z,21.96
2018-06-09T04:30:27.694Z,21.99
2018-06-09T04:32:57.938Z,22.04
2018-06-09T04:35:28.269Z,22.06
2018-06-09T04:37:58.981Z,22.06
2018-06-09T04:40:29.508Z,22.10
2018-06-09T04:42:59.792Z,22.11
2018-06-09T04:45:30.249Z,22.16
2018-06-09T04:48:01.219Z,22.18
2018-06-09T04:50:31.626Z,22.24
2018-06-09T04:53:02.210Z,22.22
2018-06-09T04:55:32.748Z,22.24
2018-06-09T04:58:03.409Z,22.31
2018-06-09T05:00:33.437Z,22.13
2018-06-09T05:03:03.338Z,22.02
2018-06-09T05:05:33.521Z,22.05
2018-06-09T05:08:03.609Z,21.96
2018-06-09T05:10:34.523Z,21.88
2018-06-09T05:13:04.520Z,21.94
2018-06-09T05:15:34.300Z,22.05
2018-06-09T05:18:04.433Z,22.08
2018-06-09T05:20:34.630Z,22.13
2018-06-09T05:23:04.723Z,22.14
2018-06-09T05:25:34.883Z,22.17
2018-06-09T05:28:05.251Z,22.24
2018-06-09T05:30:35.410Z,22.26
2018-06-09T05:33:05.514Z,22.30
2018-06-09T05:35:35.522Z,22.35
2018-06-09T05:38:05.959Z,22.44
2018-06-09T05:40:35.990Z,22.46
2018-06-09T05:43:06.315Z,22.46
2018-06-09T05:45:36.691Z,22.53
2018-06-09T05:48:06.870Z,22.51
2018-06-09T05:50:37.326Z,22.50
2018-06-09T05:53:07.280Z,22.54
2018-06-09T05:55:37.580Z,22.59
2018-06-09T05:58:07.874Z,22.58
2018-06-09T06:00:38.130Z,22.55
2018-06-09T06:03:08.111Z,22.45
2018-06-09T06:05:38.156Z,22.42
2018-06-09T06:08:08.243Z,22.57
2018-06-09T06:10:38.456Z,22.95
2018-06-09T06:13:08.593Z,23.33
2018-06-09T06:15:38.747Z,23.57
2018-06-09T06:18:09.028Z,23.81
2018-06-09T06:20:39.279Z,23.93
2018-06-09T06:25:16.811Z,24.09
2018-06-09T06:27:47.455Z,24.08
2018-06-09T06:30:17.513Z,24.10
2018-06-09T06:32:47.795Z,24.21
2018-06-09T06:35:18.302Z,24.14
2018-06-09T06:37:48.420Z,24.15
2018-06-09T06:40:18.686Z,24.34
2018-06-09T06:42:49.280Z,24.36
2018-06-09T06:45:19.709Z,24.44
2018-06-09T06:47:50.484Z,24.52
2018-06-09T06:50:20.125Z,24.63
2018-06-09T06:52:50.030Z,24.79
2018-06-09T06:55:19.964Z,24.69
2018-06-09T06:57:49.965Z,24.60
2018-06-09T07:00:20.036Z,24.36
2018-06-09T07:02:50.267Z,24.30
2018-06-09T07:05:20.200Z,24.59
2018-06-09T07:07:50.506Z,24.75
2018-06-09T07:10:20.705Z,24.72
2018-06-09T07:12:50.971Z,24.75
2018-06-09T07:15:21.205Z,24.86
2018-06-09T07:17:50.771Z,24.91
2018-06-09T07:20:20.794Z,24.98
2018-06-09T07:22:50.865Z,24.98
2018-06-09T07:25:21.060Z,25.05
2018-06-09T07:27:50.807Z,25.11
2018-06-09T07:30:21.320Z,25.18
2018-06-09T07:32:51.393Z,25.27
2018-06-09T07:35:21.387Z,25.33
2018-06-09T07:37:51.722Z,25.42
2018-06-09T07:40:21.690Z,25.54
2018-06-09T07:42:51.816Z,25.47
2018-06-09T07:45:21.776Z,25.57
2018-06-09T07:47:51.967Z,25.60
2018-06-09T07:50:22.306Z,25.75
2018-06-09T07:52:52.280Z,25.72
2018-06-09T07:55:22.344Z,25.61
2018-06-09T07:57:52.490Z,25.54
2018-06-09T08:00:22.765Z,25.37
2018-06-09T08:02:53.235Z,25.37
2018-06-09T08:05:23.184Z,25.45
2018-06-09T08:07:53.257Z,25.52
2018-06-09T08:10:23.520Z,25.61
2018-06-09T08:12:53.768Z,25.77
2018-06-09T08:15:23.682Z,25.78
2018-06-09T08:17:53.505Z,25.60
2018-06-09T08:20:23.331Z,25.46
2018-06-09T08:22:53.535Z,25.37
2018-06-09T08:25:24.246Z,25.45
2018-06-09T08:27:54.825Z,25.45
2018-06-09T08:30:25.967Z,25.52
2018-06-09T08:32:56.450Z,25.57
2018-06-09T08:40:21.472Z,25.64
2018-06-09T08:42:51.600Z,25.44
2018-06-09T08:45:21.868Z,25.53
2018-06-09T08:47:52.131Z,25.18
2018-06-09T08:50:22.174Z,25.30
2018-06-09T08:52:52.334Z,25.36
2018-06-09T08:55:22.331Z,25.13
2018-06-09T08:57:52.177Z,24.98
2018-06-09T09:00:22.791Z,25.17
2018-06-09T09:02:53.398Z,25.23
2018-06-09T09:05:23.896Z,25.44
2018-06-09T09:07:54.081Z,25.51
2018-06-09T09:10:24.203Z,25.52
2018-06-09T09:12:54.529Z,25.34
2018-06-09T09:15:24.707Z,25.41
2018-06-09T09:17:54.828Z,25.29
2018-06-09T09:20:25.082Z,25.36
2018-06-09T09:22:55.216Z,25.44
2018-06-09T09:25:25.552Z,25.49
2018-06-09T09:27:55.780Z,25.66
2018-06-09T09:30:25.948Z,25.97
2018-06-09T09:32:56.220Z,26.25
2018-06-09T09:35:26.312Z,26.53
2018-06-09T09:37:56.400Z,26.70
2018-06-09T09:40:26.380Z,26.72
2018-06-09T09:42:56.919Z,26.54
2018-06-09T09:45:27.158Z,26.27
2018-06-09T09:47:57.263Z,26.37
2018-06-09T09:50:26.969Z,26.43
2018-06-09T09:52:57.057Z,26.55
2018-06-09T09:55:27.111Z,26.68
2018-06-09T09:58:02.118Z,26.83
2018-06-09T10:00:39.819Z,26.92
2018-06-09T10:03:10.116Z,26.75
2018-06-09T10:05:40.335Z,26.67
2018-06-09T10:08:10.466Z,26.49
2018-06-09T10:10:40.421Z,26.47
2018-06-09T10:13:10.785Z,26.45
2018-06-09T10:15:41.217Z,26.52
2018-06-09T10:18:11.554Z,26.71
2018-06-09T10:20:41.557Z,26.80
2018-06-09T10:23:11.874Z,26.81
2018-06-09T10:25:41.910Z,26.87
2018-06-09T10:28:12.361Z,26.92
2018-06-09T10:30:42.523Z,26.99
2018-06-09T10:33:12.539Z,27.09
2018-06-09T10:35:42.546Z,27.25
2018-06-09T10:38:12.777Z,27.35
2018-06-09T10:40:43.224Z,27.29
2018-06-09T10:43:13.524Z,27.18
2018-06-09T10:45:44.013Z,27.02
2018-06-09T10:48:14.231Z,26.95
2018-06-09T10:50:47.145Z,26.97
2018-06-09T10:53:17.312Z,27.02
2018-06-09T10:55:47.468Z,27.09
2018-06-09T10:58:17.458Z,27.09
2018-06-09T11:00:47.571Z,27.17
2018-06-09T11:03:17.515Z,27.32
2018-06-09T11:05:47.593Z,27.49
2018-06-09T11:08:18.077Z,27.62
2018-06-09T11:10:48.017Z,27.70
2018-06-09T11:13:17.947Z,27.80
2018-06-09T11:15:48.180Z,27.90
2018-06-09T11:18:18.004Z,27.95
2018-06-09T11:20:48.185Z,28.02
2018-06-09T11:23:18.364Z,27.96
2018-06-09T11:25:48.734Z,27.75
2018-06-09T11:28:19.131Z,27.70
2018-06-09T11:30:49.157Z,27.80
2018-06-09T11:33:19.184Z,27.69
2018-06-09T11:35:49.186Z,27.71
2018-06-09T11:38:19.481Z,27.73
2018-06-09T11:40:49.429Z,27.82
2018-06-09T11:43:20.048Z,27.97
2018-06-09T11:45:50.167Z,27.95
2018-06-09T11:48:20.310Z,28.05
2018-06-09T11:50:50.436Z,28.07
2018-06-09T11:53:21.251Z,28.14
2018-06-09T11:55:51.316Z,28.32
2018-06-09T11:58:21.498Z,28.51
2018-06-09T12:00:51.462Z,28.69
2018-06-09T12:03:21.791Z,28.85
2018-06-09T12:05:51.751Z,28.97
2018-06-09T12:08:21.966Z,29.06
2018-06-09T12:10:52.392Z,29.08
2018-06-09T12:13:22.761Z,29.21
2018-06-09T12:15:53.296Z,29.42
2018-06-09T12:18:23.735Z,29.53
2018-06-09T12:20:53.893Z,29.62
2018-06-09T12:23:24.038Z,29.32
2018-06-09T12:25:54.343Z,29.38
2018-06-09T12:28:24.513Z,29.56
2018-06-09T12:30:54.670Z,29.79
2018-06-09T12:33:24.880Z,30.01
2018-06-09T12:35:55.096Z,30.18
2018-06-09T12:38:25.310Z,30.16
2018-06-09T12:40:55.541Z,30.16
2018-06-09T12:43:25.723Z,30.20
2018-06-09T12:45:55.747Z,30.21
2018-06-09T12:48:26.050Z,30.20
2018-06-09T12:50:56.141Z,29.99
2018-06-09T12:53:25.654Z,30.05
2018-06-09T12:55:55.713Z,29.83
2018-06-09T12:58:25.832Z,29.87
2018-06-09T13:00:56.621Z,30.01
2018-06-09T13:03:27.524Z,30.19
2018-06-09T13:05:57.290Z,30.22
2018-06-09T13:10:20.125Z,30.37
2018-06-09T13:12:50.209Z,30.45
2018-06-09T13:15:20.492Z,30.54
2018-06-09T13:17:50.628Z,30.67
2018-06-09T13:20:20.631Z,30.82
2018-06-09T13:22:51.107Z,31.00
2018-06-09T13:25:21.085Z,31.14
2018-06-09T13:27:51.512Z,31.32
2018-06-09T13:30:21.797Z,31.39
2018-06-09T13:32:52.282Z,31.33
2018-06-09T13:35:22.593Z,31.47
2018-06-09T13:37:52.576Z,31.64
2018-06-09T13:40:22.788Z,31.64
2018-06-09T13:42:53.138Z,31.77
2018-06-09T13:45:23.205Z,31.85
2018-06-09T13:47:53.607Z,31.94
2018-06-09T13:50:24.037Z,31.99
2018-06-09T13:52:54.325Z,31.91
2018-06-09T13:55:24.588Z,31.62
2018-06-09T13:57:54.302Z,31.57
2018-06-09T14:00:24.850Z,31.56
2018-06-09T14:02:54.977Z,31.66
2018-06-09T14:05:25.159Z,31.83
2018-06-09T14:07:55.333Z,31.73
2018-06-09T14:10:25.306Z,31.91
2018-06-09T14:12:55.674Z,32.10
2018-06-09T14:15:25.774Z,32.30
2018-06-09T14:17:56.004Z,32.49
2018-06-09T14:20:26.381Z,32.67
2018-06-09T14:22:56.496Z,32.74
2018-06-09T14:25:26.748Z,32.88
2018-06-09T14:27:57.046Z,33.03
2018-06-09T14:30:26.824Z,33.10
2018-06-09T14:32:57.172Z,33.27
2018-06-09T14:35:27.350Z,33.34
2018-06-09T14:37:57.480Z,33.33
2018-06-09T14:40:27.813Z,33.33
2018-06-09T14:42:58.168Z,33.04
2018-06-09T14:45:28.324Z,33.03
2018-06-09T14:47:58.444Z,32.93
2018-06-09T14:50:28.449Z,33.00
2018-06-09T14:52:58.595Z,33.06
2018-06-09T14:55:28.844Z,33.33
2018-06-09T14:57:59.214Z,33.49
2018-06-09T15:00:29.453Z,33.38
2018-06-09T15:02:59.569Z,33.41
2018-06-09T15:05:29.924Z,33.51
2018-06-09T15:08:00.051Z,33.70
2018-06-09T15:10:30.045Z,33.77
2018-06-09T15:13:00.304Z,33.93
2018-06-09T15:15:30.405Z,34.08
2018-06-09T15:18:00.119Z,34.00
2018-06-09T15:20:30.071Z,33.87
2018-06-09T15:23:00.256Z,33.86
2018-06-09T15:25:30.358Z,33.93
2018-06-09T15:28:00.472Z,34.09
2018-06-09T15:30:30.581Z,34.35
2018-06-09T15:33:01.124Z,34.49
2018-06-09T15:35:31.218Z,34.62
2018-06-09T15:38:02.079Z,34.78
2018-06-09T15:40:32.301Z,34.78
2018-06-09T15:43:02.530Z,34.87
2018-06-09T15:45:32.778Z,34.87
2018-06-09T15:48:02.908Z,34.81
2018-06-09T15:50:33.027Z,34.73
2018-06-09T15:53:03.442Z,34.75
2018-06-09T15:55:33.637Z,34.90
2018-06-09T15:58:03.836Z,35.03
2018-06-09T16:00:33.959Z,35.20
2018-06-09T16:03:04.096Z,35.43
2018-06-09T16:05:34.261Z,35.67
2018-06-09T16:08:04.400Z,35.85
2018-06-09T16:10:34.808Z,35.83
2018-06-09T16:13:04.998Z,36.01
2018-06-09T16:15:35.123Z,36.18
2018-06-09T16:18:05.276Z,36.43
2018-06-09T16:20:35.375Z,37.02
2018-06-09T16:23:05.795Z,37.05
2018-06-09T16:25:35.992Z,36.74
2018-06-09T16:28:06.269Z,36.91
2018-06-09T16:30:36.477Z,37.42
2018-06-09T16:33:06.545Z,38.02
2018-06-09T16:35:36.609Z,38.39
2018-06-09T16:38:06.834Z,38.66
2018-06-09T16:40:37.079Z,38.63
2018-06-09T16:43:07.357Z,38.48
2018-06-09T16:45:37.692Z,38.50
2018-06-09T16:48:07.853Z,38.69
2018-06-09T16:50:37.973Z,38.48
2018-06-09T16:53:08.127Z,38.10
2018-06-09T16:55:38.387Z,38.18
2018-06-09T16:58:08.465Z,38.29
2018-06-09T17:00:38.617Z,38.38
2018-06-09T17:03:08.804Z,38.47
2018-06-09T17:05:39.032Z,38.57
2018-06-09T17:08:09.302Z,38.70
2018-06-09T17:10:39.574Z,38.56
2018-06-09T17:13:10.054Z,38.29
2018-06-09T17:15:40.066Z,37.96
2018-06-09T17:18:10.073Z,37.56
2018-06-09T17:20:40.493Z,36.97
2018-06-09T17:23:11.269Z,36.33
2018-06-09T17:25:41.659Z,36.14
2018-06-09T17:28:12.283Z,36.26
2018-06-09T17:30:42.413Z,36.14
2018-06-09T17:33:12.597Z,35.82
2018-06-09T17:35:42.717Z,35.52
2018-06-09T17:38:12.860Z,35.33
2018-06-09T17:40:43.108Z,35.11
2018-06-09T17:43:13.461Z,35.02
2018-06-09T17:45:43.718Z,35.12
2018-06-09T17:48:13.512Z,35.36
2018-06-09T17:50:43.931Z,35.61
2018-06-09T17:53:14.312Z,35.97
2018-06-09T17:55:44.960Z,36.29
2018-06-09T17:58:15.209Z,36.28
2018-06-09T18:00:45.241Z,35.90
2018-06-09T18:03:15.507Z,35.67
2018-06-09T18:05:45.613Z,35.46
2018-06-09T18:08:15.549Z,35.35
2018-06-09T18:10:45.954Z,35.01
2018-06-09T18:13:16.267Z,34.26
2018-06-09T18:15:46.659Z,33.82
2018-06-09T18:18:16.779Z,33.44
2018-06-09T18:20:46.894Z,33.16
2018-06-09T18:23:17.135Z,33.14
2018-06-09T18:25:47.252Z,33.08
2018-06-09T18:28:17.628Z,32.83
2018-06-09T18:30:49.443Z,32.59
2018-06-09T18:33:19.669Z,32.54
2018-06-09T18:35:49.949Z,32.42
2018-06-09T18:38:20.202Z,32.12
2018-06-09T18:40:50.369Z,31.71
2018-06-09T18:43:20.685Z,31.25
2018-06-09T18:45:50.701Z,30.84
2018-06-09T18:48:21.111Z,30.56
2018-06-09T18:50:50.950Z,30.32
2018-06-09T18:53:21.405Z,30.12
2018-06-09T18:55:51.408Z,30.03
2018-06-09T18:58:21.378Z,29.96
2018-06-09T19:00:51.430Z,29.92
2018-06-09T19:03:21.316Z,29.88
2018-06-09T19:05:52.880Z,29.83
2018-06-09T19:08:22.990Z,29.75
2018-06-09T19:10:53.324Z,29.68
2018-06-09T19:13:23.235Z,29.65
2018-06-09T19:15:53.448Z,29.58
2018-06-09T19:18:23.824Z,29.34
2018-06-09T19:20:54.264Z,29.22
2018-06-09T19:23:24.704Z,29.13
2018-06-09T19:25:54.824Z,29.12
2018-06-09T19:28:24.993Z,29.03
2018-06-09T19:30:55.129Z,28.91
2018-06-09T19:33:25.475Z,28.86
2018-06-09T19:35:55.433Z,28.81
2018-06-09T19:38:25.343Z,28.70
2018-06-09T19:40:55.638Z,28.52
2018-06-09T19:43:25.775Z,28.40
2018-06-09T19:45:56.014Z,28.26
2018-06-09T19:48:25.704Z,28.12
2018-06-09T19:50:55.813Z,28.07
2018-06-09T19:53:26.049Z,28.08
2018-06-09T19:55:56.260Z,28.13
2018-06-09T19:58:26.309Z,28.10
2018-06-09T20:00:57.611Z,27.99
2018-06-09T20:03:29.029Z,27.96
2018-06-09T20:05:59.141Z,27.99
2018-06-09T20:08:29.222Z,28.00
2018-06-09T20:10:59.225Z,27.93
2018-06-09T20:13:29.697Z,27.91
2018-06-09T20:16:00.136Z,27.99
2018-06-09T20:18:30.735Z,28.07
2018-06-09T20:21:01.150Z,28.13
2018-06-09T20:23:31.482Z,28.14
2018-06-09T20:26:06.513Z,28.20
2018-06-09T20:28:36.644Z,28.17
2018-06-09T20:31:06.889Z,28.16
2018-06-09T20:33:36.919Z,28.14
2018-06-09T20:36:07.320Z,28.12
2018-06-09T20:38:37.472Z,27.92
2018-06-09T20:41:07.643Z,27.72
2018-06-09T20:43:37.852Z,27.59
2018-06-09T20:46:08.109Z,27.43
2018-06-09T20:48:38.404Z,27.37
2018-06-09T20:51:08.448Z,27.36
2018-06-09T20:53:38.542Z,27.29
2018-06-09T20:56:08.923Z,27.26
2018-06-09T20:58:39.487Z,27.23
2018-06-09T21:01:10.179Z,27.21
2018-06-09T21:03:40.734Z,27.19
2018-06-09T21:06:11.405Z,27.14
2018-06-09T21:08:41.994Z,27.09
2018-06-09T21:11:12.215Z,27.07
2018-06-09T21:13:42.917Z,27.08
2018-06-09T21:16:13.127Z,27.06
2018-06-09T21:18:44.210Z,27.11
2018-06-09T21:21:14.283Z,27.06
2018-06-09T21:23:44.788Z,27.07
2018-06-09T21:26:15.721Z,27.15
2018-06-09T21:28:50.944Z,27.15
2018-06-09T21:31:26.106Z,27.19
2018-06-09T21:35:17.920Z,27.18
2018-06-09T21:37:48.630Z,27.14
2018-06-09T21:40:23.825Z,27.13
2018-06-09T21:42:59.118Z,27.06
2018-06-09T21:45:34.388Z,26.92
2018-06-09T21:48:04.439Z,26.88
2018-06-09T21:50:35.068Z,26.90
2018-06-09T21:53:05.251Z,26.97
2018-06-09T21:55:35.249Z,26.78
2018-06-09T21:58:05.610Z,26.64
2018-06-09T22:00:35.864Z,26.60
2018-06-09T22:03:05.849Z,26.68
2018-06-09T22:05:36.041Z,26.57
2018-06-09T22:08:06.030Z,26.41
2018-06-09T22:10:36.060Z,26.46
2018-06-09T22:13:06.369Z,26.50
2018-06-09T22:15:36.855Z,26.55
2018-06-09T22:18:07.071Z,26.52
2018-06-09T22:20:37.201Z,26.46
2018-06-09T22:23:07.568Z,26.37
2018-06-09T22:25:42.799Z,26.31
2018-06-09T22:28:13.060Z,26.31
2018-06-09T22:30:43.208Z,26.34
2018-06-09T22:33:13.468Z,26.22
2018-06-09T22:35:43.408Z,26.22
2018-06-09T22:38:13.480Z,26.28
2018-06-09T22:40:43.470Z,26.32
2018-06-09T22:43:13.520Z,26.14
2018-06-09T22:45:43.697Z,26.02
2018-06-09T22:48:13.708Z,25.87
2018-06-09T22:50:44.063Z,25.86
2018-06-09T22:53:14.626Z,25.96
2018-06-09T22:55:44.605Z,25.99
2018-06-09T22:58:14.814Z,26.01
2018-06-09T23:00:51.110Z,25.97
2018-06-09T23:03:21.274Z,26.00
2018-06-09T23:05:51.215Z,26.00
2018-06-09T23:08:21.340Z,25.98
2018-06-09T23:10:51.185Z,25.95
2018-06-09T23:13:21.203Z,25.75
2018-06-09T23:15:51.443Z,25.67
2018-06-09T23:18:21.649Z,25.79
2018-06-09T23:20:51.960Z,25.85
2018-06-09T23:23:22.145Z,25.70
2018-06-09T23:25:52.414Z,25.37
2018-06-09T23:28:22.637Z,25.08
2018-06-09T23:30:52.841Z,24.71
2018-06-09T23:33:23.245Z,24.77
2018-06-09T23:35:53.985Z,24.76
2018-06-09T23:38:24.150Z,24.84
2018-06-09T23:40:54.208Z,24.94
2018-06-09T23:43:23.995Z,24.99
2018-06-09T23:45:54.035Z,25.07
2018-06-09T23:48:23.978Z,25.19
2018-06-09T23:50:54.024Z,25.29
2018-06-09T23:53:24.275Z,25.39
2018-06-09T23:55:54.455Z,25.50
2018-06-09T23:58:24.352Z,25.56
